createdAt,value
2023-02-11T00:02:34.585Z,48.05
2023-02-11T00:05:37.623Z,48.12
2023-02-11T00:08:40.875Z,48.18
2023-02-11T00:11:42.856Z,48.24
2023-02-11T00:14:45.463Z,48.34
2023-02-11T00:17:47.728Z,48.33
2023-02-11T00:20:50.856Z,48.41
2023-02-11T00:23:53.081Z,48.55
2023-02-11T00:26:56.306Z,48.63
2023-02-11T00:30:00.621Z,48.63
2023-02-11T00:33:06.047Z,48.71
2023-02-11T00:36:12.104Z,48.74
2023-02-11T00:39:14.486Z,48.84
2023-02-11T00:42:17.185Z,48.86
2023-02-11T00:45:21.689Z,48.93
2023-02-11T00:48:24.033Z,48.94
2023-02-11T00:51:28.308Z,48.99
2023-02-11T00:54:30.830Z,49.01
2023-02-11T00:57:34.096Z,49.03
2023-02-11T01:00:36.637Z,49.07
2023-02-11T01:03:39.217Z,49.13
2023-02-11T01:06:41.422Z,49.11
2023-02-11T01:09:44.231Z,49.13
2023-02-11T01:12:46.301Z,49.27
2023-02-11T01:15:49.328Z,49.21
2023-02-11T01:18:53.440Z,49.33
2023-02-11T01:21:56.332Z,49.36
2023-02-11T01:24:58.737Z,49.34
2023-02-11T01:28:01.584Z,49.44
2023-02-11T01:31:06.534Z,49.49
2023-02-11T01:34:09.253Z,49.57
2023-02-11T01:37:12.878Z,49.65
2023-02-11T01:40:17.419Z,49.73
2023-02-11T01:43:20.468Z,49.74
2023-02-11T01:46:38.453Z,49.80
2023-02-11T01:49:44.421Z,49.78
2023-02-11T01:52:47.994Z,49.86
2023-02-11T01:56:12.151Z,49.88
2023-02-11T01:59:24.245Z,49.94
2023-02-11T02:03:01.344Z,50.04
2023-02-11T02:06:13.870Z,50.08
2023-02-11T02:09:24.526Z,50.10
2023-02-11T02:12:27.567Z,50.14
2023-02-11T02:15:36.317Z,50.15
2023-02-11T02:19:01.178Z,50.15
2023-02-11T02:22:24.685Z,50.23
2023-02-11T02:26:04.351Z,50.30
2023-02-11T02:29:36.041Z,50.36
2023-02-11T02:33:21.661Z,50.47
2023-02-11T02:36:34.542Z,50.49
2023-02-11T02:39:38.350Z,50.47
2023-02-11T02:42:42.089Z,50.52
2023-02-11T02:45:44.463Z,50.60
2023-02-11T02:48:49.879Z,50.57
2023-02-11T02:52:07.499Z,50.62
2023-02-11T02:55:28.059Z,50.83
2023-02-11T02:58:58.552Z,50.90
2023-02-11T03:02:16.064Z,50.99
2023-02-11T03:05:29.165Z,51.01
2023-02-11T03:08:41.893Z,51.11
2023-02-11T03:11:45.747Z,51.11
2023-02-11T03:14:51.550Z,50.98
2023-02-11T03:17:59.046Z,50.97
2023-02-11T03:21:02.533Z,51.14
2023-02-11T03:24:37.273Z,51.09
2023-02-11T03:27:42.303Z,51.11
2023-02-11T03:31:12.963Z,51.11
2023-02-11T03:34:21.493Z,51.14
2023-02-11T03:37:40.485Z,51.08
2023-02-11T03:40:45.941Z,51.14
2023-02-11T03:43:55.023Z,51.15
2023-02-11T03:46:57.597Z,51.13
2023-02-11T03:50:02.921Z,51.07
2023-02-11T03:53:06.322Z,51.13
2023-02-11T03:56:13.273Z,51.11
2023-02-11T03:59:15.305Z,51.28
2023-02-11T04:02:18.038Z,51.35
2023-02-11T04:05:20.260Z,51.35
2023-02-11T04:08:23.513Z,51.31
2023-02-11T04:11:27.028Z,51.26
2023-02-11T04:14:29.554Z,51.24
2023-02-11T04:17:31.635Z,51.25
2023-02-11T04:20:34.398Z,51.31
2023-02-11T04:23:36.578Z,51.43
2023-02-11T04:26:38.951Z,51.48
2023-02-11T04:29:40.988Z,51.51
2023-02-11T04:32:43.340Z,51.60
2023-02-11T04:35:45.553Z,51.58
2023-02-11T04:38:48.194Z,51.56
2023-02-11T04:41:50.460Z,51.62
2023-02-11T04:44:52.921Z,51.71
2023-02-11T04:47:55.036Z,51.72
2023-02-11T04:50:58.133Z,51.69
2023-02-11T04:54:00.401Z,51.78
2023-02-11T04:57:03.324Z,51.78
2023-02-11T05:00:06.442Z,51.84
2023-02-11T05:03:09.245Z,51.78
2023-02-11T05:06:11.824Z,51.79
2023-02-11T05:09:15.442Z,51.83
2023-02-11T05:12:18.013Z,51.88
2023-02-11T05:15:20.446Z,51.77
2023-02-11T05:18:22.735Z,51.68
2023-02-11T05:21:25.146Z,51.77
2023-02-11T05:24:28.060Z,51.81
2023-02-11T05:27:31.332Z,51.80
2023-02-11T05:30:34.759Z,51.76
2023-02-11T05:33:38.529Z,51.81
2023-02-11T05:36:40.599Z,51.78
2023-02-11T05:39:43.362Z,51.82
2023-02-11T05:42:45.561Z,51.77
2023-02-11T05:45:48.374Z,51.81
2023-02-11T05:48:50.633Z,51.85
2023-02-11T05:51:53.987Z,51.80
2023-02-11T05:54:56.773Z,51.81
2023-02-11T05:57:59.245Z,51.76
2023-02-11T06:01:01.359Z,51.76
2023-02-11T06:04:03.917Z,51.80
2023-02-11T06:07:06.312Z,51.83
2023-02-11T06:10:09.398Z,51.86
2023-02-11T06:13:11.775Z,51.87
2023-02-11T06:16:15.431Z,51.87
2023-02-11T06:19:17.705Z,51.93
2023-02-11T06:22:20.452Z,51.98
2023-02-11T06:25:22.528Z,52.00
2023-02-11T06:28:24.845Z,52.03
2023-02-11T06:31:28.763Z,51.95
2023-02-11T06:34:31.478Z,52.01
2023-02-11T06:37:36.921Z,52.02
2023-02-11T06:40:40.502Z,52.03
2023-02-11T06:43:43.488Z,51.98
2023-02-11T06:46:45.985Z,52.08
2023-02-11T06:49:47.975Z,52.07
2023-02-11T06:52:50.579Z,52.07
2023-02-11T06:55:52.965Z,52.14
2023-02-11T06:58:56.387Z,52.10
2023-02-11T07:01:59.873Z,52.12
2023-02-11T07:05:02.474Z,52.06
2023-02-11T07:08:05.449Z,52.15
2023-02-11T07:11:13.655Z,52.09
2023-02-11T07:14:15.914Z,52.13
2023-02-11T07:17:18.584Z,52.10
2023-02-11T07:20:20.762Z,52.08
2023-02-11T07:23:23.890Z,52.10
2023-02-11T07:26:26.275Z,52.06
2023-02-11T07:29:28.632Z,52.09
2023-02-11T07:32:30.580Z,52.11
2023-02-11T07:35:33.163Z,52.08
2023-02-11T07:38:36.586Z,52.08
2023-02-11T07:41:39.177Z,52.07
2023-02-11T07:44:41.488Z,52.02
2023-02-11T07:47:44.015Z,52.09
2023-02-11T07:50:54.914Z,52.11
2023-02-11T07:53:59.335Z,52.20
2023-02-11T07:57:01.985Z,52.25
2023-02-11T08:00:05.930Z,52.28
2023-02-11T08:03:12.983Z,52.25
2023-02-11T08:06:18.420Z,52.25
2023-02-11T08:09:20.682Z,52.23
2023-02-11T08:12:23.491Z,52.37
2023-02-11T08:15:25.517Z,52.22
2023-02-11T08:18:28.140Z,52.27
2023-02-11T08:21:31.076Z,52.15
2023-02-11T08:24:34.401Z,52.09
2023-02-11T08:27:36.346Z,52.10
2023-02-11T08:30:38.904Z,52.15
2023-02-11T08:33:42.960Z,52.02
2023-02-11T08:36:47.938Z,52.03
2023-02-11T08:39:50.404Z,52.05
2023-02-11T08:42:52.771Z,52.46
2023-02-11T08:45:55.092Z,52.29
2023-02-11T08:48:57.640Z,52.27
2023-02-11T08:52:04.070Z,52.20
2023-02-11T08:55:07.290Z,52.17
2023-02-11T08:58:09.443Z,52.07
2023-02-11T09:01:22.835Z,52.24
2023-02-11T09:04:25.165Z,52.14
2023-02-11T09:07:28.958Z,52.10
2023-02-11T09:10:31.093Z,52.11
2023-02-11T09:13:35.558Z,52.30
2023-02-11T09:16:37.825Z,52.12
2023-02-11T09:19:40.744Z,52.02
2023-02-11T09:22:43.036Z,52.40
2023-02-11T09:25:45.720Z,52.25
2023-02-11T09:28:48.471Z,52.14
2023-02-11T09:31:51.298Z,52.52
2023-02-11T09:34:54.244Z,52.23
2023-02-11T09:37:56.642Z,52.32
2023-02-11T09:40:59.046Z,52.25
2023-02-11T09:44:06.292Z,52.48
2023-02-11T09:47:20.213Z,52.82
2023-02-11T09:50:37.089Z,53.40
2023-02-11T09:53:43.091Z,53.50
2023-02-11T09:56:45.854Z,52.80
2023-02-11T09:59:49.454Z,52.71
2023-02-11T10:02:58.806Z,52.81
2023-02-11T10:06:21.783Z,52.72
2023-02-11T10:09:50.838Z,52.45
2023-02-11T10:12:52.875Z,52.18
2023-02-11T10:16:15.717Z,52.40
2023-02-11T10:19:43.496Z,52.07
2023-02-11T10:22:50.426Z,51.90
2023-02-11T10:25:56.526Z,51.79
2023-02-11T10:29:05.032Z,51.52
2023-02-11T10:32:28.444Z,51.71
2023-02-11T10:35:31.979Z,51.62
2023-02-11T10:38:34.279Z,51.56
2023-02-11T10:41:43.017Z,51.91
2023-02-11T10:45:03.325Z,51.78
2023-02-11T10:48:26.435Z,52.13
2023-02-11T10:51:33.818Z,51.77
2023-02-11T10:54:36.765Z,55.13
2023-02-11T10:57:53.840Z,52.61
2023-02-11T11:00:59.245Z,52.82
2023-02-11T11:04:01.425Z,53.09
2023-02-11T11:07:25.200Z,55.31
2023-02-11T11:10:44.936Z,55.87
2023-02-11T11:13:53.393Z,56.80
2023-02-11T11:16:56.048Z,58.45
2023-02-11T11:20:15.128Z,56.35
2023-02-11T11:23:24.891Z,53.92
2023-02-11T11:26:42.399Z,58.29
2023-02-11T11:29:51.090Z,56.72
2023-02-11T11:32:54.123Z,55.21
2023-02-11T11:36:20.358Z,54.44
2023-02-11T11:39:30.232Z,53.80
2023-02-11T11:42:38.437Z,53.51
2023-02-11T11:45:56.758Z,53.49
2023-02-11T11:49:24.445Z,53.44
2023-02-11T11:52:34.073Z,56.71
2023-02-11T11:55:50.966Z,55.29
2023-02-11T11:58:54.648Z,55.47
2023-02-11T12:02:19.624Z,54.20
2023-02-11T12:05:34.844Z,53.71
2023-02-11T12:08:45.097Z,55.31
2023-02-11T12:12:37.859Z,54.54
2023-02-11T12:15:58.582Z,56.05
2023-02-11T12:19:25.022Z,55.27
2023-02-11T12:22:50.840Z,55.96
2023-02-11T12:26:28.812Z,60.69
2023-02-11T12:29:58.193Z,64.45
2023-02-11T12:33:20.851Z,59.11
2023-02-11T12:36:32.826Z,56.36
2023-02-11T12:39:49.306Z,55.72
2023-02-11T12:43:18.768Z,54.68
2023-02-11T12:46:53.318Z,57.63
2023-02-11T12:50:02.559Z,65.76
2023-02-11T12:53:40.114Z,67.72
2023-02-11T12:56:53.694Z,63.16
2023-02-11T13:00:33.220Z,62.09
2023-02-11T13:03:38.668Z,59.45
2023-02-11T13:06:47.094Z,64.25
2023-02-11T13:09:55.464Z,59.92
2023-02-11T13:13:19.074Z,65.31
2023-02-11T13:16:33.475Z,68.13
2023-02-11T13:19:46.250Z,67.76
2023-02-11T13:23:08.051Z,65.69
2023-02-11T13:26:10.586Z,61.30
2023-02-11T13:29:36.135Z,60.00
2023-02-11T13:32:54.342Z,57.91
2023-02-11T13:35:56.267Z,60.99
2023-02-11T13:39:06.085Z,60.14
2023-02-11T13:42:16.484Z,60.79
2023-02-11T13:45:46.460Z,60.03
2023-02-11T13:48:52.873Z,60.57
2023-02-11T13:51:56.863Z,60.26
2023-02-11T13:55:23.081Z,62.50
2023-02-11T13:58:28.312Z,66.01
2023-02-11T14:02:18.405Z,65.77
2023-02-11T14:05:47.935Z,69.46
2023-02-11T14:09:09.509Z,62.64
2023-02-11T14:12:26.358Z,66.37
2023-02-11T14:15:39.144Z,69.11
2023-02-11T14:18:47.357Z,70.67
2023-02-11T14:21:49.772Z,70.86
2023-02-11T14:24:54.300Z,71.09
2023-02-11T14:28:00.621Z,71.13
2023-02-11T14:31:11.319Z,70.47
2023-02-11T14:34:31.036Z,70.52
2023-02-11T14:37:55.594Z,63.32
2023-02-11T14:41:19.539Z,62.24
2023-02-11T14:44:28.574Z,62.07
2023-02-11T14:47:53.900Z,60.95
2023-02-11T14:51:03.074Z,64.62
2023-02-11T14:54:20.618Z,62.03
2023-02-11T14:57:23.255Z,59.21
2023-02-11T15:00:26.052Z,61.30
2023-02-11T15:03:34.972Z,63.93
2023-02-11T15:06:40.089Z,63.64
2023-02-11T15:09:52.893Z,63.08
2023-02-11T15:12:55.762Z,59.69
2023-02-11T15:16:11.253Z,63.18
2023-02-11T15:19:38.583Z,59.43
2023-02-11T15:22:41.298Z,57.77
2023-02-11T15:25:51.818Z,55.95
2023-02-11T15:28:54.483Z,57.76
2023-02-11T15:32:22.377Z,58.78
2023-02-11T15:35:29.119Z,58.47
2023-02-11T15:38:31.814Z,60.74
2023-02-11T15:41:37.524Z,61.64
2023-02-11T15:44:39.605Z,59.78
2023-02-11T15:47:53.649Z,57.84
2023-02-11T15:51:01.221Z,55.10
2023-02-11T15:54:16.090Z,53.95
2023-02-11T15:57:18.291Z,53.77
2023-02-11T16:00:24.851Z,53.43
2023-02-11T16:03:33.075Z,53.39
2023-02-11T16:06:42.061Z,53.34
2023-02-11T16:09:44.136Z,52.96
2023-02-11T16:13:08.737Z,54.35
2023-02-11T16:16:24.305Z,54.27
2023-02-11T16:19:28.784Z,53.96
2023-02-11T16:22:35.598Z,53.68
2023-02-11T16:25:38.673Z,53.31
2023-02-11T16:28:41.337Z,53.75
2023-02-11T16:31:48.637Z,53.81
2023-02-11T16:34:51.572Z,53.69
2023-02-11T16:37:54.999Z,53.41
2023-02-11T16:40:56.906Z,52.96
2023-02-11T16:43:59.560Z,52.57
2023-02-11T16:47:03.659Z,52.81
2023-02-11T16:50:21.425Z,52.80
2023-02-11T16:53:25.702Z,52.79
2023-02-11T16:56:29.266Z,52.62
2023-02-11T16:59:32.766Z,52.63
2023-02-11T17:02:37.832Z,52.57
2023-02-11T17:05:54.444Z,52.52
2023-02-11T17:08:57.623Z,52.72
2023-02-11T17:12:00.551Z,52.76
2023-02-11T17:15:04.900Z,52.86
2023-02-11T17:18:12.493Z,52.87
2023-02-11T17:21:15.626Z,52.84
2023-02-11T17:24:18.649Z,52.84
2023-02-11T17:27:21.372Z,52.85
2023-02-11T17:30:23.645Z,52.83
2023-02-11T17:33:26.624Z,52.96
2023-02-11T17:36:31.525Z,52.96
2023-02-11T17:39:34.337Z,52.98
2023-02-11T17:42:36.632Z,52.98
2023-02-11T17:45:42.604Z,53.01
2023-02-11T17:48:44.862Z,52.97
2023-02-11T17:51:48.151Z,53.02
2023-02-11T17:54:50.607Z,53.00
2023-02-11T17:57:53.211Z,53.02
2023-02-11T18:00:59.155Z,53.10
2023-02-11T18:04:02.336Z,53.01
2023-02-11T18:07:04.693Z,53.26
2023-02-11T18:10:08.550Z,53.15
2023-02-11T18:13:10.683Z,53.21
2023-02-11T18:16:16.151Z,53.26
2023-02-11T18:19:18.839Z,53.31
2023-02-11T18:22:21.485Z,53.31
2023-02-11T18:25:23.626Z,53.35
2023-02-11T18:28:26.095Z,53.42
2023-02-11T18:31:28.236Z,53.49
2023-02-11T18:34:32.395Z,53.44
2023-02-11T18:37:34.414Z,53.40
2023-02-11T18:40:40.140Z,53.63
2023-02-11T18:43:43.299Z,53.58
2023-02-11T18:46:46.166Z,53.60
2023-02-11T18:49:48.583Z,53.66
2023-02-11T18:52:51.064Z,53.73
2023-02-11T18:55:54.006Z,53.73
2023-02-11T18:58:58.191Z,53.77
2023-02-11T19:02:00.160Z,53.98
2023-02-11T19:05:06.218Z,53.86
2023-02-11T19:08:08.765Z,53.49
2023-02-11T19:11:11.475Z,54.15
2023-02-11T19:14:16.169Z,54.24
2023-02-11T19:17:18.881Z,54.31
2023-02-11T19:20:21.000Z,54.25
2023-02-11T19:23:23.659Z,54.37
2023-02-11T19:26:30.286Z,54.55
2023-02-11T19:29:35.447Z,54.69
2023-02-11T19:32:37.576Z,54.79
2023-02-11T19:35:40.064Z,54.86
2023-02-11T19:38:44.605Z,54.75
2023-02-11T19:41:47.483Z,54.73
2023-02-11T19:44:49.460Z,54.89
2023-02-11T19:47:55.589Z,54.62
2023-02-11T19:50:58.016Z,54.62
2023-02-11T19:54:00.978Z,54.62
2023-02-11T19:57:03.045Z,54.64
2023-02-11T20:00:06.921Z,54.57
2023-02-11T20:03:13.698Z,54.65
2023-02-11T20:06:18.894Z,54.88
2023-02-11T20:09:22.222Z,54.95
2023-02-11T20:12:24.638Z,53.92
2023-02-11T20:15:26.854Z,55.00
2023-02-11T20:18:29.678Z,55.45
2023-02-11T20:21:32.187Z,55.44
2023-02-11T20:24:35.269Z,55.50
2023-02-11T20:27:37.978Z,55.79
2023-02-11T20:30:40.278Z,55.59
2023-02-11T20:33:43.235Z,55.46
2023-02-11T20:36:52.070Z,55.42
2023-02-11T20:39:54.542Z,55.59
2023-02-11T20:42:57.280Z,55.49
2023-02-11T20:46:08.139Z,55.67
2023-02-11T20:49:13.023Z,55.64
2023-02-11T20:52:15.043Z,55.63
2023-02-11T20:55:17.433Z,55.45
2023-02-11T20:58:19.683Z,55.61
2023-02-11T21:01:32.339Z,55.41
2023-02-11T21:04:34.831Z,55.49
2023-02-11T21:07:39.167Z,55.45
2023-02-11T21:10:41.433Z,55.52
2023-02-11T21:13:44.493Z,55.37
2023-02-11T21:16:47.336Z,55.36
2023-02-11T21:19:50.049Z,55.33
2023-02-11T21:22:52.126Z,55.41
2023-02-11T21:25:55.223Z,55.38
2023-02-11T21:28:57.626Z,55.51
2023-02-11T21:32:00.325Z,55.50
2023-02-11T21:35:02.613Z,55.40
2023-02-11T21:38:05.564Z,55.34
2023-02-11T21:41:08.325Z,55.50
2023-02-11T21:44:11.153Z,55.42
2023-02-11T21:47:13.205Z,55.50
2023-02-11T21:50:15.993Z,55.28
2023-02-11T21:53:18.233Z,55.34
2023-02-11T21:56:21.003Z,55.21
2023-02-11T21:59:23.198Z,55.26
2023-02-11T22:02:25.703Z,55.20
2023-02-11T22:05:28.576Z,55.22
2023-02-11T22:08:31.245Z,55.29
2023-02-11T22:11:33.407Z,55.25
2023-02-11T22:14:36.819Z,55.22
2023-02-11T22:17:39.318Z,55.31
2023-02-11T22:20:42.146Z,55.29
2023-02-11T22:23:45.268Z,55.32
2023-02-11T22:26:48.057Z,55.40
2023-02-11T22:29:50.049Z,55.39
2023-02-11T22:32:52.686Z,55.33
2023-02-11T22:36:17.425Z,55.60
2023-02-11T22:39:19.759Z,55.62
2023-02-11T22:42:22.306Z,55.45
2023-02-11T22:45:24.832Z,55.54
2023-02-11T22:48:27.032Z,55.57
2023-02-11T22:51:32.008Z,55.62
2023-02-11T22:54:34.059Z,55.62
2023-02-11T22:57:36.476Z,55.61
2023-02-11T23:00:41.148Z,55.72
2023-02-11T23:03:43.469Z,55.69
2023-02-11T23:06:48.366Z,55.78
2023-02-11T23:09:51.087Z,55.94
2023-02-11T23:12:53.221Z,55.85
2023-02-11T23:15:56.420Z,55.97
2023-02-11T23:19:05.873Z,55.85
2023-02-11T23:22:08.517Z,55.82
2023-02-11T23:25:10.714Z,55.93
2023-02-11T23:28:13.038Z,55.81
2023-02-11T23:31:25.872Z,55.87
2023-02-11T23:34:28.175Z,55.90
2023-02-11T23:37:30.266Z,55.82
2023-02-11T23:40:32.858Z,55.78
2023-02-11T23:43:35.694Z,55.74
2023-02-11T23:46:39.371Z,55.86
2023-02-11T23:49:41.406Z,55.94
2023-02-11T23:52:43.862Z,56.05
2023-02-11T23:55:46.903Z,55.96
2023-02-11T23:58:51.083Z,56.06
